Monday, January 22, 2018, 8:54 AM EST
Back to Local

KHIE, Mt Washington Regional Airport

Location: Jefferson, NH, United States Lat: 44.367
Local Time: 8:54 AM EST (13:54 GMT) Lon: -71.55
Time Zone: US/Eastern Elev: 1072 ft

Show me the last for .
Show Coded

Time T Td Feel RH Dir Speed Gust Alt SLP Vis Weather Sky Remarks
2018-01-22 07:52 32 26 26 78 10° 6 - 30.20 30.24 10 OVC039 None
2018-01-22 06:52 32 27 - 81 - Calm - 30.19 30.23 10 OVC034 6-hr Min Temp (7am): 30.0°F
6-hr Max Temp (7am): 32.0°F
2018-01-22 05:52 31 27 27 85 300° 3 - 30.16 30.21 10 OVC038 None
2018-01-22 04:52 31 28 - 88 - Calm - 30.17 30.21 10 OVC035 None
2018-01-22 03:52 31 28 - 88 - Calm - 30.15 30.19 10 OVC035 None
2018-01-22 02:52 31 28 - 88 - Calm - 30.15 30.19 10 OVC040 None
2018-01-22 01:52 31 27 - 85 - Calm - 30.15 30.19 10 BKN042 OVC090 None
2018-01-22 00:52 31 28 - 88 - Calm - 30.14 30.18 10 OVC040 6-hr Min Temp (1am): 30.9°F
6-hr Max Temp (1am): 32.0°F
2018-01-21 23:52 31 29 - 92 - Calm - 30.14 30.18 10 OVC039 24-hr Min Temp (12am): 30.9°F
24-hr Max Temp (12am): 39.0°F
2018-01-21 22:52 31 28 - 88 - Calm - 30.14 30.18 10 OVC038 None
2018-01-21 21:52 31 28 - 88 - Calm - 30.13 30.17 10 SCT043 OVC095 None
2018-01-21 20:52 31 28 - 88 - Calm - 30.13 30.17 10 OVC095 None
2018-01-21 19:52 32 27 - 81 - Calm - 30.13 30.17 10 OVC090 None
2018-01-21 18:52 32 27 - 81 - Calm - 30.13 30.16 10 OVC090 6-hr Min Temp (7pm): 30.9°F
6-hr Max Temp (7pm): 37.9°F
2018-01-21 17:52 31 27 - 85 - Calm - 30.12 30.16 10 SCT048 OVC100 None
2018-01-21 16:52 32 27 - 81 - Calm - 30.10 30.14 10 FEW120 None
2018-01-21 15:52 37 26 34 64 310° 3 - 30.10 30.14 10 OVC046 None
2018-01-21 14:52 38 26 32 61 280° 8 - 30.08 30.11 10 FEW031 OVC047 None
2018-01-21 13:52 37 26 33 64 310° 5 - 30.07 30.10 10 BKN030 OVC046 None
2018-01-21 13:49 37 27 - 64 - Calm - 30.07 - 10 BKN030 OVC046 None
2018-01-21 13:17 37 26 33 64 280° 5 - 30.07 - 10 BKN029 OVC046 None
2018-01-21 12:52 36 26 32 66 280° 5 - 30.07 30.11 10 FEW028 OVC045 6-hr Min Temp (1pm): 34.0°F
6-hr Max Temp (1pm): 36.0°F
2018-01-21 12:28 36 26 30 66 270° 7 - 30.08 - 10 SCT027 OVC045 None
2018-01-21 11:52 35 25 29 66 260° 8 - 30.09 30.12 10 OVC027 None
2018-01-21 11:24 36 25 33 63 280° 3 - 30.09 - 10 BKN029 OVC041 None
2018-01-21 10:52 35 25 29 66 290° 7 - 30.09 30.12 10 OVC046 None
2018-01-21 09:52 35 25 31 66 240° 5 - 30.09 30.12 10 SCT030 OVC045 None

Support USWX by starting your Amazon purchase here.